Time;durP1;ratioP1;P1;durP2;ratioP2;P2;SDS_P1;SDS_P2;PMS_P1;PMS_P2;Temp;Humidity;BMP_temperature;BMP_pressure;BME280_temperature;BME280_humidity;BME280_pressure;Samples;Min_cycle;Max_cycle;Signal;HPM_P1;HPM_P2
2023/01/12 00:02:13;;;;;;;14.30;10.55;;;;;;;15.58;52.53;100623.81;5112596;28;20081;-58
2023/01/12 00:04:41;;;;;;;15.30;10.00;;;;;;;15.55;52.52;100629.41;5112552;28;20096;-58
2023/01/12 00:07:10;;;;;;;15.27;9.90;;;;;;;15.52;52.01;100635.84;5112592;28;20399;-58
2023/01/12 00:09:39;;;;;;;16.65;10.52;;;;;;;15.49;52.47;100635.25;5112523;28;20039;-58
2023/01/12 00:12:11;;;;;;;15.43;10.35;;;;;;;15.45;52.42;100638.16;5112494;28;20115;-58
2023/01/12 00:14:39;;;;;;;15.45;11.38;;;;;;;15.42;52.64;100634.84;5112469;28;20097;-58
2023/01/12 00:17:14;;;;;;;14.75;10.30;;;;;;;15.38;52.56;100634.22;5112408;28;20054;-59
2023/01/12 00:19:43;;;;;;;16.02;10.50;;;;;;;15.36;52.69;100641.53;5112386;28;20088;-59
2023/01/12 00:22:15;;;;;;;17.10;11.07;;;;;;;15.33;52.62;100643.56;5112387;28;20506;-59
2023/01/12 00:24:44;;;;;;;15.40;10.77;;;;;;;15.29;52.54;100637.56;5112350;28;20051;-59
2023/01/12 00:27:16;;;;;;;15.85;10.90;;;;;;;15.27;52.51;100634.16;5112303;28;20050;-59
2023/01/12 00:29:44;;;;;;;15.20;10.85;;;;;;;15.24;52.23;100625.44;5112170;28;20066;-58
2023/01/12 00:32:13;;;;;;;16.98;11.23;;;;;;;15.21;53.02;100631.91;5112341;28;20044;-59
2023/01/12 00:34:42;;;;;;;17.08;11.50;;;;;;;15.18;52.82;100640.19;5112223;28;20044;-59
2023/01/12 00:37:11;;;;;;;15.48;11.13;;;;;;;15.15;52.62;100632.34;5112190;28;20051;-59
2023/01/12 00:39:39;;;;;;;16.67;11.60;;;;;;;15.13;52.64;100637.84;5112065;28;20043;-59
2023/01/12 00:47:44;;;;;;;17.00;11.10;;;;;;;15.03;52.48;100628.72;5111981;28;20093;-60
2023/01/12 00:50:14;;;;;;;17.48;11.68;;;;;;;15.02;52.68;100639.59;5112024;28;20377;-59
2023/01/12 00:52:46;;;;;;;16.52;11.40;;;;;;;14.99;52.64;100650.56;5111937;28;20051;-59
2023/01/12 00:55:14;;;;;;;16.58;11.20;;;;;;;14.97;52.74;100660.56;5112076;28;20039;-59
2023/01/12 00:57:43;;;;;;;16.05;10.98;;;;;;;14.94;52.76;100640.13;5112434;28;20044;-60
2023/01/12 01:00:13;;;;;;;18.10;11.57;;;;;;;14.92;52.71;100641.22;5116120;28;20055;-58
2023/01/12 01:02:41;;;;;;;17.67;11.70;;;;;;;14.88;52.63;100646.81;5116099;28;20058;-59
2023/01/12 01:05:09;;;;;;;15.82;11.20;;;;;;;14.87;52.59;100660.38;5116015;28;20067;-60
2023/01/12 01:07:38;;;;;;;14.95;10.65;;;;;;;14.85;53.23;100668.50;5116068;28;20071;-59
2023/01/12 01:10:07;;;;;;;17.45;11.88;;;;;;;14.82;53.11;100667.88;5097650;28;20522;-59
2023/01/12 01:12:35;;;;;;;17.73;11.93;;;;;;;14.79;52.82;100665.44;5115794;28;20445;-59
2023/01/12 01:15:06;;;;;;;17.70;12.07;;;;;;;14.76;52.98;100666.47;5115852;28;20047;-58
2023/01/12 01:17:34;;;;;;;16.98;11.23;;;;;;;14.73;52.71;100664.03;5115909;28;20047;-59
2023/01/12 01:20:05;;;;;;;18.33;12.35;;;;;;;14.72;52.81;100666.81;5115930;28;20062;-60
2023/01/12 01:22:33;;;;;;;17.13;11.73;;;;;;;14.69;52.99;100675.09;5115814;28;20521;-59
2023/01/12 01:25:01;;;;;;;18.70;12.82;;;;;;;14.68;52.93;100676.06;5115753;28;20069;-59
2023/01/12 01:27:29;;;;;;;17.20;12.30;;;;;;;14.66;52.78;100688.72;5115494;28;20047;-59
2023/01/12 01:29:58;;;;;;;18.13;12.05;;;;;;;14.64;52.84;100687.97;5115447;28;20397;-60
2023/01/12 01:32:27;;;;;;;18.75;12.55;;;;;;;14.62;52.70;100690.78;5115493;28;20561;-59
2023/01/12 01:34:55;;;;;;;19.25;12.65;;;;;;;14.59;52.71;100682.94;5115447;28;20051;-60
2023/01/12 01:37:23;;;;;;;19.73;12.55;;;;;;;14.58;52.75;100681.22;5115415;28;20047;-59
2023/01/12 01:39:51;;;;;;;20.55;13.55;;;;;;;14.56;52.94;100691.19;5115316;28;20485;-60
2023/01/12 01:42:27;;;;;;;19.05;12.93;;;;;;;14.54;52.52;100687.75;5115126;28;20050;-59
2023/01/12 01:44:58;;;;;;;18.83;13.05;;;;;;;14.52;52.30;100692.38;5115369;28;20082;-59
2023/01/12 01:47:34;;;;;;;19.10;12.45;;;;;;;14.51;52.84;100693.34;5115197;28;20055;-59
2023/01/12 01:50:07;;;;;;;17.77;12.93;;;;;;;14.48;52.63;100696.25;5115188;28;20377;-59
2023/01/12 01:52:39;;;;;;;21.08;12.95;;;;;;;14.46;52.55;100684.75;5096873;28;20047;-59
2023/01/12 01:55:12;;;;;;;19.50;13.50;;;;;;;14.44;53.05;100676.78;5115133;28;20055;-59
2023/01/12 01:57:43;;;;;;;21.73;14.00;;;;;;;14.42;52.61;100677.84;5115208;28;20050;-59
2023/01/12 02:00:13;;;;;;;22.10;15.20;;;;;;;14.41;52.43;100682.38;5096698;28;20048;-59
2023/01/12 02:02:46;;;;;;;21.10;14.80;;;;;;;14.38;52.65;100676.31;5114784;28;20544;-59
2023/01/12 02:05:17;;;;;;;20.27;13.93;;;;;;;14.36;52.78;100681.81;5114836;28;20096;-59
2023/01/12 02:07:46;;;;;;;21.38;14.25;;;;;;;14.35;52.67;100682.78;5114787;28;20047;-59
2023/01/12 02:10:14;;;;;;;20.63;14.95;;;;;;;14.33;52.46;100685.56;5114333;28;20072;-59
2023/01/12 02:18:28;;;;;;;19.02;13.57;;;;;;;14.28;52.63;100690.41;5114751;28;20104;-59
2023/01/12 02:21:17;;;;;;;23.33;15.27;;;;;;;14.26;52.59;100692.31;5114405;28;20062;-59
2023/01/12 02:24:35;;;;;;;22.48;14.52;;;;;;;14.22;52.59;100690.81;5096217;28;20044;-59
2023/01/12 02:27:33;;;;;;;20.02;14.15;;;;;;;14.21;52.65;100693.59;5114527;28;20050;-59
2023/01/12 02:30:29;;;;;;;23.02;14.82;;;;;;;14.19;52.42;100693.72;5085718;28;20051;-59
2023/01/12 02:33:14;;;;;;;20.83;14.55;;;;;;;14.18;52.60;100683.06;5114367;28;20402;-59
2023/01/12 02:35:49;;;;;;;20.90;14.05;;;;;;;14.16;52.68;100675.13;5114294;28;20096;-59
2023/01/12 02:38:31;;;;;;;24.52;15.60;;;;;;;14.15;52.50;100683.28;5114286;28;20488;-59
2023/01/12 02:41:08;;;;;;;21.35;14.35;;;;;;;14.12;52.59;100679.00;5114157;28;20040;-59
2023/01/12 02:43:38;;;;;;;23.02;14.82;;;;;;;14.12;52.44;100683.50;5114000;28;20100;-59
2023/01/12 02:46:14;;;;;;;21.85;14.75;;;;;;;14.09;52.42;100673.84;5114156;28;20053;-59
2023/01/12 02:48:51;;;;;;;24.45;15.27;;;;;;;14.07;52.37;100675.75;5113942;28;20047;-59
2023/01/12 02:51:28;;;;;;;18.98;13.98;;;;;;;14.07;52.52;100674.91;5113904;28;20050;-59
2023/01/12 02:54:00;;;;;;;23.17;15.30;;;;;;;14.06;52.46;100676.72;5113898;28;20039;-59
2023/01/12 02:56:33;;;;;;;22.03;14.97;;;;;;;14.04;52.57;100673.28;5113983;28;20462;-59
2023/01/12 02:59:08;;;;;;;23.33;15.63;;;;;;;14.02;52.43;100669.84;5113843;28;20089;-59
2023/01/12 03:01:37;;;;;;;21.20;14.95;;;;;;;14.01;52.37;100668.16;5113855;28;20040;-59
2023/01/12 03:04:09;;;;;;;21.33;14.55;;;;;;;13.99;52.37;100662.88;5113756;28;20062;-59
2023/01/12 03:06:45;;;;;;;20.08;14.10;;;;;;;13.98;52.46;100666.50;5113788;28;20608;-59
2023/01/12 03:09:16;;;;;;;21.00;14.77;;;;;;;13.97;52.46;100664.78;5113618;28;20046;-59
2023/01/12 03:11:48;;;;;;;21.52;14.68;;;;;;;13.95;52.29;100661.34;5113567;28;20094;-60
2023/01/12 03:14:17;;;;;;;20.23;15.47;;;;;;;13.94;52.32;100664.16;5113451;28;20044;-60
2023/01/12 03:16:45;;;;;;;23.55;15.57;;;;;;;13.93;52.33;100651.72;5113546;28;20418;-58
2023/01/12 03:19:21;;;;;;;24.92;16.35;;;;;;;13.92;52.46;100656.22;5113328;28;20484;-60
2023/01/12 03:21:54;;;;;;;24.73;16.88;;;;;;;13.90;52.39;100654.59;5112659;28;20067;-58
2023/01/12 03:24:30;;;;;;;22.95;15.68;;;;;;;13.90;52.61;100657.28;5113304;28;20381;-59
2023/01/12 03:27:02;;;;;;;23.15;15.65;;;;;;;13.87;52.25;100652.97;5113242;28;20374;-59
2023/01/12 03:29:34;;;;;;;21.92;15.05;;;;;;;13.87;52.46;100654.78;5113056;28;20124;-60
2023/01/12 03:32:03;;;;;;;20.83;14.67;;;;;;;13.85;52.65;100654.91;5113262;28;20047;-59
2023/01/12 03:34:34;;;;;;;22.63;15.85;;;;;;;13.84;52.55;100658.53;5113099;28;20047;-59
2023/01/12 03:37:08;;;;;;;22.35;15.57;;;;;;;13.83;52.59;100647.94;5113040;28;20096;-58
2023/01/12 03:39:42;;;;;;;21.75;15.25;;;;;;;13.82;52.59;100660.47;5112979;28;20485;-59
2023/01/12 03:42:21;;;;;;;21.08;14.82;;;;;;;13.80;52.41;100651.69;5112835;28;20047;-59
2023/01/12 03:44:58;;;;;;;24.70;15.50;;;;;;;13.79;52.67;100655.28;5112915;28;20507;-58
2023/01/12 03:47:30;;;;;;;22.23;15.85;;;;;;;13.78;52.48;100658.94;5112954;28;20105;-58
2023/01/12 03:50:04;;;;;;;22.45;15.73;;;;;;;13.76;52.62;100652.84;5112835;28;20515;-59
2023/01/12 03:52:36;;;;;;;23.02;15.82;;;;;;;13.74;52.71;100650.25;5094623;28;20484;-59
2023/01/12 03:55:08;;;;;;;20.65;15.35;;;;;;;13.74;52.57;100646.72;5112952;28;20044;-58
2023/01/12 03:57:38;;;;;;;22.73;15.27;;;;;;;13.72;52.65;100660.22;5112744;28;20058;-58
2023/01/12 04:00:09;;;;;;;20.88;14.90;;;;;;;13.72;52.66;100657.56;5094401;28;20048;-57
2023/01/12 04:02:38;;;;;;;19.70;12.93;;;;;;;13.71;52.87;100658.53;5112722;28;20047;-58
2023/01/12 04:05:09;;;;;;;21.67;15.50;;;;;;;13.69;52.71;100647.00;5112678;28;20048;-59
2023/01/12 04:07:37;;;;;;;21.27;15.75;;;;;;;13.69;52.60;100640.78;5112586;28;20055;-59
2023/01/12 04:10:07;;;;;;;21.67;15.27;;;;;;;13.66;52.66;100633.81;5094240;28;20489;-59
2023/01/12 04:12:39;;;;;;;25.25;15.43;;;;;;;13.64;52.73;100649.16;5112529;28;20690;-59
2023/01/12 04:15:08;;;;;;;19.50;13.70;;;;;;;13.65;52.64;100645.50;5112373;28;20480;-59
2023/01/12 04:17:36;;;;;;;22.70;14.68;;;;;;;13.65;52.80;100647.34;5112452;28;20050;-58
2023/01/12 04:20:09;;;;;;;21.15;14.07;;;;;;;13.64;52.73;100650.97;5112450;28;20047;-59
2023/01/12 04:22:44;;;;;;;20.05;13.80;;;;;;;13.63;52.61;100654.63;5112439;28;20126;-58
2023/01/12 04:25:15;;;;;;;22.83;14.15;;;;;;;13.62;52.63;100653.78;5112297;28;20048;-58
2023/01/12 04:27:46;;;;;;;19.52;13.55;;;;;;;13.60;52.99;100655.66;5112513;28;20051;-57
2023/01/12 04:30:17;;;;;;;20.90;13.85;;;;;;;13.60;52.73;100652.13;5112395;28;20047;-58
2023/01/12 04:32:46;;;;;;;18.98;13.88;;;;;;;13.59;52.85;100653.09;5112218;28;20063;-58
2023/01/12 04:35:16;;;;;;;21.25;13.70;;;;;;;13.58;52.72;100656.75;5112204;28;20062;-58
2023/01/12 04:37:45;;;;;;;19.85;13.07;;;;;;;13.58;52.94;100654.91;5112158;28;20467;-58
2023/01/12 04:40:15;;;;;;;19.23;12.80;;;;;;;13.60;53.56;100654.81;5112424;28;20048;-58
2023/01/12 04:43:07;;;;;;;18.17;12.32;;;;;;;13.63;54.35;100649.25;5112010;28;20548;-57
2023/01/12 04:45:38;;;;;;;17.92;12.10;;;;;;;13.71;55.09;100652.31;5112000;28;20131;-61
2023/01/12 04:48:09;;;;;;;18.92;11.98;;;;;;;13.81;55.18;100649.84;5112159;28;20046;-58
2023/01/12 04:50:43;;;;;;;17.98;12.65;;;;;;;13.91;55.28;100650.97;5112285;28;20400;-58
2023/01/12 04:53:12;;;;;;;17.55;12.02;;;;;;;14.03;55.30;100655.47;5112183;28;20124;-58
2023/01/12 04:55:42;;;;;;;15.48;11.60;;;;;;;14.13;55.33;100655.72;5111993;28;20048;-59
2023/01/12 04:58:10;;;;;;;16.20;11.32;;;;;;;14.21;55.37;100651.53;5112100;28;20126;-58
2023/01/12 05:00:38;;;;;;;17.27;11.70;;;;;;;14.29;55.23;100667.97;5111984;28;20047;-58
2023/01/12 05:03:06;;;;;;;16.52;11.23;;;;;;;14.41;55.09;100668.09;5111960;28;20051;-58
2023/01/12 05:05:36;;;;;;;16.05;11.15;;;;;;;14.50;54.99;100668.34;5111893;28;20048;-58
2023/01/12 05:10:53;;;;;;;15.98;11.68;;;;;;;14.72;54.78;100659.63;5111780;28;20065;-58
2023/01/12 05:13:23;;;;;;;15.63;10.40;;;;;;;14.82;54.72;100658.00;5111833;28;20044;-58
2023/01/12 05:15:51;;;;;;;14.20;10.27;;;;;;;14.91;54.61;100666.38;5111704;28;20129;-59
2023/01/12 05:18:20;;;;;;;15.15;10.73;;;;;;;14.99;54.58;100672.06;5111855;28;20050;-59
2023/01/12 05:20:48;;;;;;;15.02;10.50;;;;;;;15.07;54.61;100667.00;5111727;28;20043;-58
2023/01/12 05:23:17;;;;;;;15.30;11.18;;;;;;;15.16;54.41;100667.19;5111857;28;20100;-57
2023/01/12 05:25:45;;;;;;;15.30;11.00;;;;;;;15.25;54.39;100676.41;5111746;28;20059;-58
2023/01/12 05:28:14;;;;;;;15.48;10.65;;;;;;;15.35;54.30;100665.84;5111709;28;20047;-58
2023/01/12 05:30:42;;;;;;;14.50;10.27;;;;;;;15.43;54.20;100669.66;5111523;28;20046;-58
2023/01/12 05:33:15;;;;;;;15.25;10.80;;;;;;;15.52;54.24;100675.34;5111640;28;20048;-58
2023/01/12 05:35:43;;;;;;;15.35;10.07;;;;;;;15.59;54.09;100665.84;5111662;28;20044;-58
2023/01/12 05:38:11;;;;;;;13.88;10.20;;;;;;;15.65;53.98;100676.19;5089775;28;20040;-59
2023/01/12 05:40:41;;;;;;;15.27;10.20;;;;;;;15.69;54.11;100670.44;5091062;28;20040;-59
2023/01/12 05:46:01;;;;;;;14.13;9.88;;;;;;;15.74;54.14;100678.19;5094844;28;20093;-59
2023/01/12 05:48:30;;;;;;;14.13;9.75;;;;;;;15.76;54.10;100678.94;5076636;28;20047;-59
2023/01/12 05:51:00;;;;;;;14.50;10.20;;;;;;;15.75;54.13;100674.53;5076216;28;20497;-59
2023/01/12 05:53:28;;;;;;;13.88;10.30;;;;;;;15.73;54.03;100663.03;5094677;28;20047;-59
2023/01/12 05:55:58;;;;;;;15.95;10.30;;;;;;;15.72;54.14;100669.34;5094596;28;20040;-58
2023/01/12 05:58:26;;;;;;;14.43;10.73;;;;;;;15.69;54.21;100672.28;5094687;28;20044;-58
2023/01/12 06:00:54;;;;;;;16.92;11.02;;;;;;;15.68;54.25;100673.25;5094174;28;20047;-59
2023/01/12 06:03:23;;;;;;;15.45;10.68;;;;;;;15.64;54.31;100682.53;5094396;28;20082;-58
2023/01/12 06:05:54;;;;;;;14.85;10.85;;;;;;;15.61;54.24;100680.06;5094427;28;20819;-59
2023/01/12 06:08:22;;;;;;;14.45;10.50;;;;;;;15.57;54.38;100671.34;5094528;28;20481;-59
2023/01/12 06:10:51;;;;;;;15.30;10.45;;;;;;;15.54;54.33;100670.69;5094372;28;20052;-59
2023/01/12 06:16:08;;;;;;;14.25;10.70;;;;;;;15.47;54.33;100675.69;5094191;28;20040;-59
2023/01/12 06:18:37;;;;;;;14.25;10.80;;;;;;;15.44;54.39;100675.88;5094131;28;20052;-59
2023/01/12 06:21:07;;;;;;;16.67;11.65;;;;;;;15.40;54.40;100669.91;5093970;28;20089;-59
2023/01/12 06:23:36;;;;;;;14.70;10.65;;;;;;;15.37;54.37;100670.13;5093964;28;20050;-59
2023/01/12 06:26:06;;;;;;;18.15;11.20;;;;;;;15.34;54.48;100686.47;5093982;28;20044;-60
2023/01/12 06:28:41;;;;;;;15.52;10.68;;;;;;;15.30;54.44;100693.03;5093725;28;20130;-60
2023/01/12 06:31:11;;;;;;;14.98;10.52;;;;;;;15.27;54.32;100701.34;5075566;28;20450;-59
2023/01/12 06:33:40;;;;;;;16.80;11.95;;;;;;;15.25;54.19;100705.09;5093735;28;20079;-58
2023/01/12 06:36:09;;;;;;;13.07;10.25;;;;;;;15.20;54.23;100713.50;5075570;28;20577;-59
2023/01/12 06:38:37;;;;;;;15.40;11.07;;;;;;;15.17;54.23;100705.66;5093511;28;20102;-58
2023/01/12 06:41:07;;;;;;;15.95;11.73;;;;;;;15.14;54.26;100712.09;5075212;28;20048;-59
2023/01/12 06:43:57;;;;;;;15.40;11.40;;;;;;;15.11;54.11;100714.16;5093208;28;20118;-58
2023/01/12 06:46:25;;;;;;;16.52;11.20;;;;;;;15.07;53.84;100716.22;5093394;28;20386;-58
2023/01/12 06:48:56;;;;;;;15.57;10.30;;;;;;;15.06;54.07;100727.06;5093286;28;20169;-58
2023/01/12 06:51:25;;;;;;;15.52;10.82;;;;;;;15.02;54.04;100723.72;5093221;28;20120;-59
2023/01/12 06:53:54;;;;;;;14.90;11.25;;;;;;;15.00;53.80;100722.97;5092760;28;20048;-58
2023/01/12 06:56:22;;;;;;;17.85;10.98;;;;;;;14.97;54.01;100736.63;5091040;28;20040;-58
2023/01/12 06:58:50;;;;;;;16.45;11.57;;;;;;;14.95;53.93;100743.06;5093236;28;20048;-58
2023/01/12 07:01:20;;;;;;;15.30;10.95;;;;;;;14.92;53.84;100745.97;5092053;28;20044;-59
2023/01/12 07:03:48;;;;;;;17.17;11.13;;;;;;;14.87;54.01;100735.56;5093169;28;20089;-59
2023/01/12 07:06:16;;;;;;;16.52;10.90;;;;;;;14.87;53.92;100738.25;5074966;28;20045;-58
2023/01/12 07:08:45;;;;;;;15.70;10.15;;;;;;;14.83;53.98;100744.78;5092860;28;20051;-57
2023/01/12 07:11:13;;;;;;;15.77;10.77;;;;;;;14.80;53.78;100745.88;5092937;28;20063;-58
2023/01/12 07:13:42;;;;;;;14.20;9.88;;;;;;;14.78;53.50;100752.31;5092898;28;20044;-58
2023/01/12 07:16:10;;;;;;;16.02;10.18;;;;;;;14.75;53.49;100753.38;5093019;28;20040;-58
2023/01/12 07:18:40;;;;;;;16.17;10.70;;;;;;;14.74;53.36;100751.66;5093126;28;20037;-57
2023/01/12 07:21:12;;;;;;;12.85;9.82;;;;;;;14.71;53.31;100749.19;5092817;28;20082;-58
2023/01/12 07:23:42;;;;;;;13.85;9.68;;;;;;;14.68;52.73;100751.25;5074642;28;20048;-58
2023/01/12 07:26:10;;;;;;;13.65;9.00;;;;;;;14.66;52.94;100754.00;5092799;28;20036;-58
2023/01/12 07:28:39;;;;;;;14.48;9.93;;;;;;;14.63;52.95;100748.88;5092694;28;20431;-58
2023/01/12 07:31:08;;;;;;;15.48;10.35;;;;;;;14.59;53.04;100745.53;5092615;28;20047;-58
2023/01/12 07:33:37;;;;;;;13.68;9.98;;;;;;;14.59;52.97;100747.38;5092567;28;20074;-58
2023/01/12 07:36:07;;;;;;;13.88;9.10;;;;;;;14.56;53.00;100748.41;5092655;28;20040;-60
2023/01/12 07:38:36;;;;;;;12.75;9.60;;;;;;;14.55;53.13;100756.59;5074049;28;20044;-58
2023/01/12 07:42:21;;;;;;;13.15;8.82;;;;;;;14.53;53.18;100758.53;5092556;28;20043;-58
2023/01/12 07:43:53;;;;;;;14.75;9.25;;;;;;;14.49;53.47;100759.72;5080429;28;20139;-58
2023/01/12 07:46:21;;;;;;;13.23;9.00;;;;;;;14.49;53.01;100763.25;5092424;28;20048;-59
2023/01/12 07:48:49;;;;;;;12.30;8.63;;;;;;;14.48;53.32;100763.34;5092332;28;20071;-58
2023/01/12 07:51:22;;;;;;;13.57;9.18;;;;;;;14.48;53.92;100760.69;5092336;28;20048;-58
2023/01/12 07:53:51;;;;;;;13.18;9.32;;;;;;;14.51;54.15;100763.13;5092348;28;20058;-58
2023/01/12 07:56:19;;;;;;;11.82;8.00;;;;;;;14.55;54.54;100762.81;5092219;28;20048;-59
2023/01/12 07:58:48;;;;;;;12.95;8.55;;;;;;;14.65;54.71;100773.78;5092082;28;20617;-58
2023/01/12 08:01:16;;;;;;;12.95;8.68;;;;;;;14.74;54.92;100770.47;5092031;28;20423;-58
2023/01/12 08:03:45;;;;;;;11.98;8.27;;;;;;;14.85;54.83;100775.94;5091958;28;20048;-58
2023/01/12 08:06:13;;;;;;;12.55;8.70;;;;;;;14.94;54.58;100773.59;5092102;28;20425;-58
2023/01/12 08:08:42;;;;;;;12.15;8.07;;;;;;;14.99;54.58;100766.94;5092000;28;20044;-58
2023/01/12 08:11:11;;;;;;;12.45;8.27;;;;;;;15.04;54.56;100782.72;5092002;28;20074;-58
2023/01/12 08:13:40;;;;;;;12.80;8.05;;;;;;;15.05;54.60;100782.59;5090696;28;20052;-58
2023/01/12 08:16:14;;;;;;;11.38;8.57;;;;;;;15.05;54.55;100781.75;5090676;28;20101;-58
2023/01/12 08:18:47;;;;;;;11.70;8.13;;;;;;;15.06;54.50;100783.50;5092007;28;20066;-58
2023/01/12 08:21:18;;;;;;;;;;;;;;;15.06;54.62;100783.50;5090850;28;20109;-58
2023/01/12 08:23:51;;;;;;;11.80;7.45;;;;;;;15.04;54.54;100780.03;5091598;28;19924;-58
2023/01/12 08:26:22;;;;;;;11.57;7.75;;;;;;;15.04;54.45;100777.34;5091673;28;20048;-59
2023/01/12 08:28:55;;;;;;;11.60;8.00;;;;;;;15.04;54.63;100785.41;5091721;28;20397;-58
2023/01/12 08:31:25;;;;;;;11.00;7.55;;;;;;;15.01;54.61;100773.06;5091864;28;20388;-59
2023/01/12 08:33:54;;;;;;;10.15;7.43;;;;;;;15.01;54.67;100774.88;5091775;28;20083;-57
2023/01/12 08:36:23;;;;;;;10.10;7.60;;;;;;;14.99;54.79;100774.13;5091625;28;20533;-57
2023/01/12 08:38:52;;;;;;;10.98;8.02;;;;;;;14.98;54.69;100781.34;5091957;28;20052;-58
2023/01/12 08:41:33;;;;;;;11.10;7.57;;;;;;;14.96;54.78;100772.53;5091660;28;20332;-59
2023/01/12 08:44:04;;;;;;;10.68;7.68;;;;;;;14.95;54.66;100781.53;5107494;28;20446;-57
2023/01/12 08:46:35;;;;;;;10.93;7.57;;;;;;;14.93;54.73;100767.34;5111969;28;20055;-58
2023/01/12 08:49:08;;;;;;;10.80;7.50;;;;;;;14.92;54.66;100773.69;5111864;28;20067;-58
2023/01/12 08:51:38;;;;;;;11.55;7.88;;;;;;;14.91;54.62;100777.34;5112036;28;20047;-58
2023/01/12 08:54:09;;;;;;;10.75;7.32;;;;;;;14.92;54.69;100783.59;5111829;28;20047;-59
2023/01/12 08:56:37;;;;;;;10.27;7.45;;;;;;;14.88;54.66;100780.25;5112027;28;20523;-58
2023/01/12 08:59:06;;;;;;;11.25;7.07;;;;;;;14.87;54.74;100779.41;5111757;28;20047;-59
2023/01/12 09:01:34;;;;;;;9.73;7.03;;;;;;;14.85;54.59;100778.63;5111883;28;20040;-60
2023/01/12 09:04:06;;;;;;;10.55;7.20;;;;;;;14.85;54.50;100777.75;5111949;28;20118;-59
2023/01/12 09:06:36;;;;;;;11.55;7.10;;;;;;;14.82;54.53;100776.16;5111845;28;20097;-59
2023/01/12 09:09:08;;;;;;;10.35;7.63;;;;;;;14.82;54.62;100775.31;5093238;28;20043;-59
2023/01/12 09:11:38;;;;;;;10.07;7.07;;;;;;;14.82;54.66;100781.53;5093177;28;20047;-58
2023/01/12 09:14:06;;;;;;;10.20;6.68;;;;;;;14.82;54.69;100778.00;5111646;28;20051;-58
2023/01/12 09:16:35;;;;;;;11.95;7.68;;;;;;;14.81;54.65;100784.34;5111756;28;20039;-58
2023/01/12 09:19:04;;;;;;;9.85;6.82;;;;;;;14.79;54.75;100784.44;5112982;28;20047;-57
2023/01/12 09:21:35;;;;;;;10.23;6.55;;;;;;;14.77;54.75;100781.00;5115357;28;20054;-57
2023/01/12 09:24:04;;;;;;;9.88;7.13;;;;;;;14.78;54.71;100785.41;5115901;28;20054;-57
2023/01/12 09:26:37;;;;;;;9.48;6.50;;;;;;;14.77;54.80;100783.69;5115441;28;20051;-58
2023/01/12 09:29:06;;;;;;;10.43;7.20;;;;;;;14.77;54.88;100782.84;5115423;28;20050;-58
2023/01/12 09:31:37;;;;;;;10.10;6.65;;;;;;;14.76;54.90;100781.09;5097144;28;20408;-57
2023/01/12 09:34:05;;;;;;;11.40;7.47;;;;;;;14.76;54.86;100778.41;5115252;28;20173;-58
2023/01/12 09:36:35;;;;;;;9.88;6.60;;;;;;;14.75;54.98;100785.59;5115346;28;20047;-58
2023/01/12 09:39:04;;;;;;;8.90;6.32;;;;;;;14.74;54.92;100793.75;5115238;28;20054;-58
2023/01/12 09:47:30;;;;;;;11.30;7.00;;;;;;;14.72;54.96;100775.09;5109777;28;20077;-58
2023/01/12 09:50:03;;;;;;;9.90;6.07;;;;;;;14.73;54.96;100778.63;5115250;28;20377;-58
2023/01/12 09:52:41;;;;;;;8.80;6.00;;;;;;;14.72;54.96;100780.44;5115043;28;20127;-59
2023/01/12 09:55:14;;;;;;;;;;;;;;;14.72;54.82;100780.44;5115382;28;20054;-58
2023/01/12 09:58:05;;;;;;;8.57;5.75;;;;;;;14.73;54.95;100771.44;5114719;28;19941;-59
2023/01/12 10:00:33;;;;;;;8.65;6.05;;;;;;;14.78;54.76;100765.75;5114724;28;20119;-58
2023/01/12 10:03:11;;;;;;;8.07;5.80;;;;;;;14.85;54.92;100764.34;5114543;28;20056;-58
2023/01/12 10:05:46;;;;;;;8.80;5.80;;;;;;;14.89;55.02;100772.09;5114489;28;20057;-59
2023/01/12 10:08:18;;;;;;;9.82;6.30;;;;;;;14.94;54.89;100770.91;5114660;28;20408;-58
2023/01/12 10:11:01;;;;;;;8.77;5.90;;;;;;;14.97;54.82;100774.25;5114780;28;20558;-59
2023/01/12 10:13:49;;;;;;;10.55;6.25;;;;;;;15.04;55.15;100766.59;5114499;28;20119;-58
2023/01/12 10:16:25;;;;;;;8.98;6.07;;;;;;;15.05;54.99;100763.78;5114263;28;20073;-58
2023/01/12 10:18:58;;;;;;;8.60;5.65;;;;;;;15.02;54.90;100765.84;5114368;28;20130;-58
2023/01/12 10:21:29;;;;;;;9.27;5.95;;;;;;;14.99;54.40;100763.38;5114385;28;20055;-58
2023/01/12 10:23:57;;;;;;;9.43;6.25;;;;;;;14.98;54.50;100753.63;5114283;28;20047;-58
2023/01/12 10:26:29;;;;;;;9.43;6.20;;;;;;;14.96;54.66;100760.91;5114297;28;20047;-58
2023/01/12 10:29:01;;;;;;;9.20;5.45;;;;;;;14.94;54.51;100762.84;5114103;28;20047;-60
2023/01/12 10:31:29;;;;;;;9.45;6.22;;;;;;;14.92;54.50;100764.78;5095634;28;20051;-58
2023/01/12 10:34:03;;;;;;;8.90;5.75;;;;;;;14.88;54.65;100759.63;5114148;28;20047;-58
2023/01/12 10:36:32;;;;;;;8.80;5.95;;;;;;;14.87;54.69;100757.91;5113870;28;20054;-59
2023/01/12 10:39:03;;;;;;;7.88;5.63;;;;;;;14.85;54.82;100756.28;5114062;28;20467;-59
2023/01/12 10:41:32;;;;;;;7.63;5.15;;;;;;;14.83;54.86;100756.41;5113845;28;20046;-58
2023/01/12 10:44:14;;;;;;;8.18;5.70;;;;;;;14.81;54.87;100746.72;5095636;28;20079;-58
2023/01/12 10:46:42;;;;;;;8.02;5.55;;;;;;;14.81;54.67;100747.59;5113966;28;20467;-59
2023/01/12 10:49:19;;;;;;;9.45;5.70;;;;;;;14.81;54.70;100746.72;5113994;28;20047;-58
2023/01/12 10:51:53;;;;;;;9.02;5.72;;;;;;;14.78;54.65;100747.81;5113847;28;20097;-58
2023/01/12 10:54:25;;;;;;;8.38;5.60;;;;;;;14.79;54.63;100749.53;5113688;28;20047;-57
2023/01/12 10:56:56;;;;;;;8.82;5.35;;;;;;;14.78;54.76;100741.59;5113560;28;20562;-59
2023/01/12 10:59:30;;;;;;;9.02;5.30;;;;;;;14.74;54.78;100732.88;5113534;28;20446;-58
2023/01/12 11:02:15;;;;;;;8.00;5.30;;;;;;;14.76;54.77;100738.97;5113716;28;20509;-57
2023/01/12 11:04:45;;;;;;;9.30;6.00;;;;;;;14.74;54.87;100732.88;5113353;28;20443;-59
2023/01/12 11:07:15;;;;;;;8.05;5.28;;;;;;;14.73;54.87;100728.47;5094951;28;20047;-58
2023/01/12 11:09:44;;;;;;;8.90;5.57;;;;;;;14.74;54.86;100732.88;5095146;28;20051;-58
2023/01/12 11:12:23;;;;;;;8.38;5.35;;;;;;;14.71;54.84;100724.19;5113405;28;20048;-58
2023/01/12 11:15:01;;;;;;;8.45;5.50;;;;;;;14.72;54.87;100732.13;5095116;28;20115;-58
2023/01/12 11:17:45;;;;;;;8.10;5.20;;;;;;;14.71;54.92;100719.66;5094915;28;20134;-59
2023/01/12 11:20:31;;;;;;;7.97;5.45;;;;;;;14.71;55.06;100711.59;5113282;28;21275;-58
2023/01/12 11:23:02;;;;;;;7.13;4.55;;;;;;;14.70;55.25;100707.22;5113165;28;20561;-58
2023/01/12 11:25:35;;;;;;;7.35;4.68;;;;;;;14.72;55.21;100709.78;5113073;28;20104;-58
2023/01/12 11:28:10;;;;;;;7.50;5.20;;;;;;;14.73;55.16;100714.19;5113079;28;20093;-59
2023/01/12 11:30:46;;;;;;;6.78;4.50;;;;;;;14.72;55.36;100710.63;5094748;28;20295;-58
2023/01/12 11:33:18;;;;;;;7.18;4.75;;;;;;;14.73;55.28;100716.88;5113047;28;20054;-58
2023/01/12 11:35:51;;;;;;;8.05;4.90;;;;;;;14.71;55.11;100711.59;5094872;28;20047;-58
2023/01/12 11:38:24;;;;;;;9.55;5.35;;;;;;;14.71;55.11;100706.25;5112942;28;20603;-58
2023/01/12 11:40:55;;;;;;;6.88;4.57;;;;;;;14.70;55.24;100704.53;5112881;28;20051;-58
2023/01/12 11:43:48;;;;;;;7.85;4.88;;;;;;;14.70;55.20;100707.22;5112343;28;20055;-58
2023/01/12 11:46:25;;;;;;;8.05;4.90;;;;;;;14.69;55.29;100699.25;5094513;28;20126;-58
2023/01/12 11:49:01;;;;;;;7.47;4.70;;;;;;;14.69;55.33;100702.81;5112811;28;20044;-58
2023/01/12 11:51:30;;;;;;;7.82;5.20;;;;;;;14.68;55.23;100701.09;5112460;28;20049;-59
2023/01/12 11:53:58;;;;;;;7.13;4.65;;;;;;;14.68;55.44;100702.91;5112921;28;20105;-59
2023/01/12 11:56:55;;;;;;;7.18;5.10;;;;;;;14.67;55.28;100696.69;5094035;28;20040;-59
2023/01/12 11:59:32;;;;;;;7.43;4.93;;;;;;;14.67;55.20;100695.81;5094306;28;20089;-58
2023/01/12 12:02:14;;;;;;;6.68;4.60;;;;;;;14.67;55.39;100701.16;5112607;28;20385;-58